createdAt,value
2022-10-25T00:01:57.720Z,11.19
2022-10-25T00:04:25.988Z,11.21
2022-10-25T00:06:53.709Z,11.13
2022-10-25T00:09:21.463Z,11.06
2022-10-25T00:11:49.552Z,11.04
2022-10-25T00:14:19.460Z,11.06
2022-10-25T00:16:47.244Z,11.02
2022-10-25T00:19:15.230Z,11.05
2022-10-25T00:21:42.965Z,10.81
2022-10-25T00:24:12.388Z,10.97
2022-10-25T00:26:43.666Z,11.01
2022-10-25T00:29:12.246Z,11.02
2022-10-25T00:31:40.507Z,11.02
2022-10-25T00:34:08.179Z,11.01
2022-10-25T00:36:36.121Z,11.06
2022-10-25T00:39:04.351Z,11.08
2022-10-25T00:41:34.345Z,11.03
2022-10-25T00:44:36.212Z,11.08
2022-10-25T00:47:18.366Z,10.93
2022-10-25T00:49:47.555Z,11.03
2022-10-25T00:52:15.633Z,11.09
2022-10-25T00:54:46.665Z,11.11
2022-10-25T00:57:27.515Z,11.12
2022-10-25T00:59:55.782Z,11.15
2022-10-25T01:02:23.612Z,11.14
2022-10-25T01:04:51.669Z,11.14
2022-10-25T01:07:20.025Z,11.16
2022-10-25T01:09:47.921Z,11.14
2022-10-25T01:12:15.611Z,11.18
2022-10-25T01:14:46.293Z,11.19
2022-10-25T01:17:52.731Z,11.21
2022-10-25T01:20:43.933Z,11.22
2022-10-25T01:23:30.447Z,11.25
2022-10-25T01:26:29.455Z,11.31
2022-10-25T01:29:05.806Z,11.35
2022-10-25T01:31:48.597Z,11.38
2022-10-25T01:34:44.311Z,11.48
2022-10-25T01:37:18.436Z,11.49
2022-10-25T01:39:54.935Z,11.50
2022-10-25T01:42:31.190Z,11.48
2022-10-25T01:45:02.624Z,11.49
2022-10-25T01:47:39.355Z,11.51
2022-10-25T01:50:28.495Z,11.48
2022-10-25T01:52:56.601Z,11.37
2022-10-25T01:55:35.484Z,11.40
2022-10-25T01:58:12.424Z,11.39
2022-10-25T02:00:49.623Z,11.43
2022-10-25T02:03:39.535Z,11.52
2022-10-25T02:06:30.590Z,11.51
2022-10-25T02:09:09.867Z,11.48
2022-10-25T02:11:38.115Z,11.83
2022-10-25T02:14:22.723Z,12.32
2022-10-25T02:16:55.309Z,12.59
2022-10-25T02:19:36.123Z,13.22
2022-10-25T02:22:08.340Z,13.52
2022-10-25T02:24:37.236Z,13.48
2022-10-25T02:27:08.183Z,13.63
2022-10-25T02:29:38.213Z,13.66
2022-10-25T02:32:06.524Z,13.51
2022-10-25T02:34:34.625Z,13.53
2022-10-25T02:37:02.344Z,13.45
2022-10-25T02:39:31.692Z,13.48
2022-10-25T02:42:02.585Z,13.53
2022-10-25T02:44:30.897Z,13.59
2022-10-25T02:46:58.940Z,13.63
2022-10-25T02:49:27.049Z,13.67
2022-10-25T02:51:55.100Z,13.77
2022-10-25T02:54:22.930Z,13.75
2022-10-25T02:56:52.669Z,13.72
2022-10-25T02:59:21.517Z,13.69
2022-10-25T03:01:49.505Z,13.77
2022-10-25T03:04:17.324Z,13.79
2022-10-25T03:06:45.311Z,13.85
2022-10-25T03:09:12.985Z,13.80
2022-10-25T03:11:40.756Z,13.85
2022-10-25T03:14:08.806Z,13.83
2022-10-25T03:16:36.602Z,13.83
2022-10-25T03:19:04.579Z,13.93
2022-10-25T03:21:32.971Z,13.88
2022-10-25T03:24:00.828Z,13.86
2022-10-25T03:26:28.586Z,13.81
2022-10-25T03:28:56.512Z,13.73
2022-10-25T03:31:25.221Z,13.65
2022-10-25T03:33:53.002Z,13.65
2022-10-25T03:36:21.032Z,13.66
2022-10-25T03:38:48.673Z,13.64
2022-10-25T03:41:16.448Z,13.64
2022-10-25T03:43:44.537Z,13.58
2022-10-25T03:46:12.417Z,13.59
2022-10-25T03:48:40.219Z,13.54
2022-10-25T03:51:08.404Z,13.52
2022-10-25T03:53:36.180Z,13.53
2022-10-25T03:56:04.101Z,13.47
2022-10-25T03:58:32.191Z,13.48
2022-10-25T04:01:00.235Z,13.47
2022-10-25T04:03:28.280Z,13.49
2022-10-25T04:05:56.013Z,13.45
2022-10-25T04:08:23.764Z,13.47
2022-10-25T04:10:51.845Z,13.43
2022-10-25T04:13:19.514Z,13.42
2022-10-25T04:15:47.416Z,13.48
2022-10-25T04:18:15.407Z,13.47
2022-10-25T04:20:43.076Z,13.44
2022-10-25T04:23:10.717Z,13.43
2022-10-25T04:25:38.759Z,13.43
2022-10-25T04:28:06.479Z,13.45
2022-10-25T04:30:36.635Z,13.40
2022-10-25T04:33:07.162Z,13.37
2022-10-25T04:35:34.851Z,13.37
2022-10-25T04:38:02.631Z,13.36
2022-10-25T04:40:30.672Z,13.35
2022-10-25T04:43:02.436Z,13.37
2022-10-25T04:45:30.927Z,13.38
2022-10-25T04:47:58.605Z,13.39
2022-10-25T04:50:26.426Z,13.35
2022-10-25T04:52:54.355Z,13.36
2022-10-25T04:55:22.152Z,13.37
2022-10-25T04:57:51.607Z,13.42
2022-10-25T05:00:19.691Z,13.39
2022-10-25T05:02:48.595Z,13.43
2022-10-25T05:05:16.593Z,13.36
2022-10-25T05:07:44.794Z,13.34
2022-10-25T05:10:12.630Z,13.39
2022-10-25T05:12:40.491Z,13.38
2022-10-25T05:15:09.048Z,13.38
2022-10-25T05:17:36.865Z,13.38
2022-10-25T05:20:05.165Z,13.40
2022-10-25T05:22:33.145Z,13.40
2022-10-25T05:25:00.855Z,13.39
2022-10-25T05:27:28.636Z,13.41
2022-10-25T05:29:56.747Z,13.44
2022-10-25T05:32:24.507Z,13.44
2022-10-25T05:34:52.278Z,13.46
2022-10-25T05:37:20.271Z,13.44
2022-10-25T05:39:47.957Z,13.48
2022-10-25T05:42:15.895Z,13.50
2022-10-25T05:44:43.903Z,13.55
2022-10-25T05:47:12.512Z,13.56
2022-10-25T05:49:42.494Z,13.59
2022-10-25T05:52:11.336Z,13.59
2022-10-25T05:54:39.060Z,13.60
2022-10-25T05:57:06.788Z,13.62
2022-10-25T05:59:34.976Z,13.62
2022-10-25T06:02:02.850Z,13.66
2022-10-25T06:04:31.007Z,13.67
2022-10-25T06:06:58.885Z,13.66
2022-10-25T06:09:26.732Z,13.66
2022-10-25T06:11:54.822Z,13.70
2022-10-25T06:14:22.505Z,13.70
2022-10-25T06:16:50.314Z,13.77
2022-10-25T06:19:18.403Z,13.76
2022-10-25T06:21:46.984Z,13.80
2022-10-25T06:24:14.777Z,13.82
2022-10-25T06:26:42.986Z,13.88
2022-10-25T06:29:10.937Z,13.96
2022-10-25T06:31:38.809Z,14.04
2022-10-25T06:34:07.123Z,14.13
2022-10-25T06:36:34.940Z,14.25
2022-10-25T06:39:05.977Z,14.31
2022-10-25T06:41:37.130Z,14.34
2022-10-25T06:44:07.276Z,14.43
2022-10-25T06:47:04.511Z,14.52
2022-10-25T06:49:25.473Z,14.62
2022-10-25T06:51:54.054Z,14.70
2022-10-25T06:54:21.894Z,14.72
2022-10-25T06:56:50.253Z,14.68
2022-10-25T06:59:20.738Z,14.71
2022-10-25T07:01:48.867Z,14.73
2022-10-25T07:04:16.668Z,14.78
2022-10-25T07:06:44.692Z,14.83
2022-10-25T07:09:13.428Z,14.87
2022-10-25T07:11:41.819Z,14.91
2022-10-25T07:14:11.208Z,15.00
2022-10-25T07:16:39.345Z,15.04
2022-10-25T07:19:11.071Z,15.11
2022-10-25T07:21:40.694Z,15.19
2022-10-25T07:24:11.262Z,15.29
2022-10-25T07:26:42.022Z,15.38
2022-10-25T07:29:10.557Z,15.44
2022-10-25T07:31:41.759Z,15.47
2022-10-25T07:34:16.977Z,15.57
2022-10-25T07:36:44.836Z,15.68
2022-10-25T07:39:13.151Z,15.78
2022-10-25T07:41:40.922Z,15.87
2022-10-25T07:44:12.965Z,15.94
2022-10-25T07:46:44.339Z,16.02
2022-10-25T07:49:13.862Z,16.06
2022-10-25T07:51:42.291Z,16.09
2022-10-25T07:54:10.464Z,16.05
2022-10-25T07:56:38.245Z,16.18
2022-10-25T07:59:06.155Z,16.32
2022-10-25T08:01:34.389Z,16.29
2022-10-25T08:04:02.682Z,16.37
2022-10-25T08:06:30.707Z,16.44
2022-10-25T08:09:05.449Z,16.42
2022-10-25T08:11:43.040Z,16.47
2022-10-25T08:14:10.920Z,16.59
2022-10-25T08:16:38.803Z,16.65
2022-10-25T08:19:07.149Z,16.68
2022-10-25T08:21:35.169Z,16.73
2022-10-25T08:24:03.056Z,16.75
2022-10-25T08:26:36.584Z,16.76
2022-10-25T08:29:05.117Z,16.92
2022-10-25T08:31:33.258Z,16.90
2022-10-25T08:34:01.233Z,17.03
2022-10-25T08:36:29.287Z,16.99
2022-10-25T08:38:57.555Z,17.10
2022-10-25T08:41:27.379Z,17.07
2022-10-25T08:44:10.401Z,17.12
2022-10-25T08:46:43.952Z,17.12
2022-10-25T08:49:21.250Z,17.01
2022-10-25T08:51:53.430Z,17.03
2022-10-25T08:54:27.090Z,16.98
2022-10-25T08:57:15.442Z,17.08
2022-10-25T08:59:47.588Z,17.07
2022-10-25T09:02:21.998Z,17.09
2022-10-25T09:04:49.950Z,17.13
2022-10-25T09:07:46.369Z,17.09
2022-10-25T09:10:38.828Z,17.25
2022-10-25T09:13:26.492Z,17.32
2022-10-25T09:16:24.731Z,17.41
2022-10-25T09:18:57.417Z,17.67
2022-10-25T09:21:41.949Z,17.72
2022-10-25T09:24:22.099Z,17.74
2022-10-25T09:27:00.106Z,17.77
2022-10-25T09:29:35.961Z,17.68
2022-10-25T09:32:08.333Z,17.71
2022-10-25T09:34:36.575Z,17.68
2022-10-25T09:37:18.626Z,17.61
2022-10-25T09:39:51.665Z,17.66
2022-10-25T09:42:31.098Z,17.69
2022-10-25T09:45:04.383Z,17.65
2022-10-25T09:47:47.960Z,17.61
2022-10-25T09:50:24.549Z,17.56
2022-10-25T09:53:18.985Z,17.57
2022-10-25T09:55:59.640Z,17.56
2022-10-25T09:58:31.205Z,17.55
2022-10-25T10:01:13.357Z,17.58
2022-10-25T10:03:41.845Z,17.60
2022-10-25T10:06:42.623Z,17.61
2022-10-25T10:09:14.126Z,17.68
2022-10-25T10:11:42.835Z,17.66
2022-10-25T10:14:20.308Z,17.61
2022-10-25T10:16:51.364Z,17.61
2022-10-25T10:19:49.136Z,17.59
2022-10-25T10:22:17.393Z,17.53
2022-10-25T10:24:47.410Z,17.61
2022-10-25T10:27:21.358Z,17.59
2022-10-25T10:29:58.548Z,17.57
2022-10-25T10:32:29.449Z,17.62
2022-10-25T10:35:05.691Z,17.64
2022-10-25T10:37:35.117Z,17.64
2022-10-25T10:40:08.072Z,17.69
2022-10-25T10:42:41.838Z,17.66
2022-10-25T10:45:18.419Z,17.67
2022-10-25T10:47:50.380Z,17.69
2022-10-25T10:50:24.606Z,17.75
2022-10-25T10:53:06.246Z,17.77
2022-10-25T10:55:38.058Z,17.79
2022-10-25T10:58:28.458Z,17.78
2022-10-25T11:01:07.388Z,17.79
2022-10-25T11:03:48.844Z,17.70
2022-10-25T11:06:34.532Z,17.67
2022-10-25T11:09:23.106Z,17.67
2022-10-25T11:15:15.499Z,17.64
2022-10-25T11:17:53.908Z,17.66
2022-10-25T11:20:33.045Z,17.61
2022-10-25T11:23:13.097Z,17.68
2022-10-25T11:26:02.722Z,17.62
2022-10-25T11:28:47.633Z,17.61
2022-10-25T11:31:30.303Z,17.54
2022-10-25T11:34:13.879Z,17.51
2022-10-25T11:37:06.480Z,17.49
2022-10-25T11:39:48.604Z,17.47
2022-10-25T11:42:28.820Z,17.46
2022-10-25T11:45:02.945Z,17.48
2022-10-25T11:48:02.412Z,17.47
2022-10-25T11:51:02.898Z,17.44
2022-10-25T11:53:51.711Z,17.27
2022-10-25T11:56:33.136Z,17.13
2022-10-25T11:59:25.598Z,17.04
2022-10-25T12:02:26.620Z,17.06
2022-10-25T12:05:18.110Z,17.04
2022-10-25T12:07:52.290Z,17.00
2022-10-25T12:10:41.428Z,17.01
2022-10-25T12:13:20.700Z,17.03
2022-10-25T12:15:52.944Z,17.09
2022-10-25T12:18:29.025Z,17.10
2022-10-25T12:20:57.744Z,17.09
2022-10-25T12:23:26.765Z,17.03
2022-10-25T12:26:06.380Z,17.17
2022-10-25T12:28:45.348Z,17.12
2022-10-25T12:31:24.386Z,17.09
2022-10-25T12:34:08.115Z,17.15
2022-10-25T12:36:39.272Z,17.05
2022-10-25T12:39:13.961Z,17.11
2022-10-25T12:41:44.660Z,17.17
2022-10-25T12:44:12.701Z,17.09
2022-10-25T12:46:55.974Z,17.12
2022-10-25T12:49:40.243Z,17.14
2022-10-25T12:52:18.976Z,17.21
2022-10-25T12:55:15.488Z,17.19
2022-10-25T12:58:20.358Z,17.21
2022-10-25T13:01:10.615Z,17.25
2022-10-25T13:04:17.191Z,17.25
2022-10-25T13:06:46.870Z,17.27
2022-10-25T13:09:16.960Z,17.27
2022-10-25T13:12:05.265Z,17.34
2022-10-25T13:15:07.275Z,17.35
2022-10-25T13:17:41.341Z,17.35
2022-10-25T13:20:35.268Z,17.38
2022-10-25T13:23:40.926Z,17.39
2022-10-25T13:26:19.565Z,17.41
2022-10-25T13:28:48.749Z,17.37
2022-10-25T13:31:38.020Z,17.39
2022-10-25T13:34:12.566Z,17.39
2022-10-25T13:36:51.835Z,17.41
2022-10-25T13:39:32.642Z,17.43
2022-10-25T13:42:15.983Z,17.45
2022-10-25T13:44:57.031Z,17.44
2022-10-25T13:47:31.105Z,17.40
2022-10-25T13:49:59.403Z,17.39
2022-10-25T13:52:27.223Z,17.43
2022-10-25T13:54:56.526Z,17.43
2022-10-25T13:57:50.604Z,17.44
2022-10-25T14:03:09.809Z,17.44
2022-10-25T14:05:56.101Z,17.44
2022-10-25T14:08:50.620Z,17.42
2022-10-25T14:11:37.891Z,17.37
2022-10-25T14:14:11.922Z,17.37
2022-10-25T14:17:07.739Z,17.33
2022-10-25T14:19:40.113Z,17.31
2022-10-25T14:22:22.295Z,17.30
2022-10-25T14:24:53.363Z,17.23
2022-10-25T14:27:33.545Z,17.22
2022-10-25T14:30:23.623Z,17.16
2022-10-25T14:32:54.625Z,17.16
2022-10-25T14:35:24.363Z,17.16
2022-10-25T14:37:52.430Z,17.10
2022-10-25T14:40:23.880Z,17.09
2022-10-25T14:42:55.131Z,17.08
2022-10-25T14:45:25.350Z,17.08
2022-10-25T14:47:53.551Z,17.07
2022-10-25T14:50:24.264Z,17.07
2022-10-25T14:52:52.513Z,17.06
2022-10-25T14:55:26.706Z,17.03
2022-10-25T14:57:54.515Z,17.03
2022-10-25T15:00:23.743Z,17.03
2022-10-25T15:02:58.971Z,17.06
2022-10-25T15:05:27.408Z,17.02
2022-10-25T15:07:59.545Z,17.00
2022-10-25T15:10:30.908Z,16.98
2022-10-25T15:13:06.682Z,16.91
2022-10-25T15:15:40.595Z,16.86
2022-10-25T15:18:26.803Z,16.81
2022-10-25T15:21:07.023Z,16.70
2022-10-25T15:23:35.502Z,16.64
2022-10-25T15:26:26.886Z,16.56
2022-10-25T15:28:57.413Z,16.48
2022-10-25T15:31:31.145Z,16.38
2022-10-25T15:34:00.820Z,16.30
2022-10-25T15:36:30.566Z,16.22
2022-10-25T15:39:08.177Z,16.16
2022-10-25T15:41:39.533Z,16.07
2022-10-25T15:44:07.200Z,15.97
2022-10-25T15:46:35.203Z,15.86
2022-10-25T15:49:08.624Z,15.83
2022-10-25T15:51:40.053Z,15.68
2022-10-25T15:54:20.154Z,15.63
2022-10-25T15:56:48.906Z,15.61
2022-10-25T15:59:17.914Z,15.51
2022-10-25T16:01:48.536Z,15.43
2022-10-25T16:04:18.637Z,15.35
2022-10-25T16:06:46.965Z,15.24
2022-10-25T16:09:14.646Z,15.27
2022-10-25T16:11:46.972Z,15.18
2022-10-25T16:14:26.114Z,15.15
2022-10-25T16:16:54.374Z,15.09
2022-10-25T16:19:22.145Z,15.04
2022-10-25T16:21:49.902Z,15.04
2022-10-25T16:24:18.245Z,14.98
2022-10-25T16:26:51.258Z,14.92
2022-10-25T16:29:24.759Z,14.88
2022-10-25T16:31:52.934Z,14.80
2022-10-25T16:34:21.251Z,14.71
2022-10-25T16:36:50.571Z,14.58
2022-10-25T16:39:18.345Z,14.47
2022-10-25T16:41:47.358Z,14.41
2022-10-25T16:44:17.468Z,14.38
2022-10-25T16:46:45.409Z,14.28
2022-10-25T16:49:13.638Z,14.18
2022-10-25T16:51:41.730Z,14.17
2022-10-25T16:54:11.030Z,13.98
2022-10-25T16:56:39.686Z,13.97
2022-10-25T16:59:08.082Z,13.99
2022-10-25T17:01:38.969Z,13.95
2022-10-25T17:04:09.774Z,13.90
2022-10-25T17:06:42.087Z,13.85
2022-10-25T17:09:10.979Z,13.73
2022-10-25T17:11:38.968Z,13.61
2022-10-25T17:14:07.088Z,13.49
2022-10-25T17:16:36.382Z,13.38
2022-10-25T17:19:04.359Z,13.28
2022-10-25T17:21:33.422Z,13.20
2022-10-25T17:24:03.780Z,13.11
2022-10-25T17:26:31.419Z,12.90
2022-10-25T17:29:01.004Z,12.93
2022-10-25T17:31:29.603Z,12.90
2022-10-25T17:33:57.313Z,12.83
2022-10-25T17:36:26.038Z,12.92
2022-10-25T17:38:55.071Z,12.95
2022-10-25T17:41:22.978Z,12.99
2022-10-25T17:43:53.210Z,12.92
2022-10-25T17:46:29.456Z,12.82
2022-10-25T17:49:05.954Z,12.74
2022-10-25T17:51:34.747Z,12.59
2022-10-25T17:54:02.798Z,12.46
2022-10-25T17:59:03.147Z,12.47
2022-10-25T18:01:35.292Z,12.40
2022-10-25T18:04:04.371Z,12.34
2022-10-25T18:06:32.123Z,12.38
2022-10-25T18:09:00.189Z,12.35
2022-10-25T18:11:28.565Z,12.32
2022-10-25T18:13:58.702Z,12.27
2022-10-25T18:16:27.586Z,12.21
2022-10-25T18:18:56.466Z,12.19
2022-10-25T18:21:25.027Z,12.07
2022-10-25T18:24:01.187Z,12.00
2022-10-25T18:26:29.680Z,12.07
2022-10-25T18:28:58.778Z,12.13
2022-10-25T18:31:27.410Z,12.18
2022-10-25T18:33:56.355Z,12.16
2022-10-25T18:36:24.311Z,12.19
2022-10-25T18:38:52.401Z,12.21
2022-10-25T18:41:26.337Z,12.21
2022-10-25T18:43:55.016Z,12.19
2022-10-25T18:46:23.986Z,12.12
2022-10-25T18:48:53.063Z,12.10
2022-10-25T18:51:22.327Z,11.97
2022-10-25T18:54:00.860Z,11.84
2022-10-25T18:56:29.707Z,11.86
2022-10-25T18:58:59.059Z,11.85
2022-10-25T19:01:32.202Z,11.82
2022-10-25T19:04:02.724Z,11.77
2022-10-25T19:06:31.231Z,11.83
2022-10-25T19:08:59.571Z,11.81
2022-10-25T19:11:27.934Z,11.82
2022-10-25T19:13:56.497Z,11.79
2022-10-25T19:16:24.653Z,11.79
2022-10-25T19:18:52.994Z,11.79
2022-10-25T19:21:20.976Z,11.72
2022-10-25T19:23:48.906Z,11.75
2022-10-25T19:26:19.605Z,11.78
2022-10-25T19:28:48.047Z,11.73
2022-10-25T19:31:17.777Z,11.78
2022-10-25T19:33:47.310Z,11.82
2022-10-25T19:36:17.630Z,11.80
2022-10-25T19:38:48.340Z,11.80
2022-10-25T19:41:18.930Z,11.89
2022-10-25T19:43:46.982Z,11.95
2022-10-25T19:46:15.889Z,11.95
2022-10-25T19:48:44.055Z,11.93
2022-10-25T19:51:16.665Z,12.02
2022-10-25T19:53:44.975Z,12.00
2022-10-25T19:56:15.537Z,12.00
2022-10-25T19:58:43.704Z,12.03
2022-10-25T20:01:29.354Z,12.19
2022-10-25T20:03:58.413Z,12.11
2022-10-25T20:06:35.628Z,12.14
2022-10-25T20:09:04.329Z,12.11
2022-10-25T20:11:32.641Z,12.20
2022-10-25T20:14:01.880Z,12.20
2022-10-25T20:16:30.761Z,12.27
2022-10-25T20:19:00.857Z,12.34
2022-10-25T20:21:35.793Z,12.31
2022-10-25T20:24:07.067Z,12.32
2022-10-25T20:26:37.089Z,12.33
2022-10-25T20:29:07.975Z,12.43
2022-10-25T20:31:35.639Z,12.43
2022-10-25T20:34:04.187Z,12.43
2022-10-25T20:36:32.457Z,12.42
2022-10-25T20:39:00.066Z,12.42
2022-10-25T20:41:29.289Z,12.38
2022-10-25T20:44:00.085Z,12.43
2022-10-25T20:46:28.692Z,12.46
2022-10-25T20:49:02.835Z,12.51
2022-10-25T20:51:30.823Z,12.54
2022-10-25T20:53:58.715Z,12.52
2022-10-25T20:56:26.433Z,12.43
2022-10-25T20:58:54.397Z,12.45
2022-10-25T21:01:22.192Z,12.46
2022-10-25T21:03:50.138Z,12.42
2022-10-25T21:06:18.155Z,12.49
2022-10-25T21:08:45.777Z,12.52
2022-10-25T21:11:13.861Z,12.54
2022-10-25T21:13:41.951Z,12.57
2022-10-25T21:16:12.244Z,12.54
2022-10-25T21:18:42.039Z,12.50
2022-10-25T21:21:17.973Z,12.48
2022-10-25T21:23:49.035Z,12.46
2022-10-25T21:26:17.024Z,12.49
2022-10-25T21:28:44.774Z,12.45
2022-10-25T21:31:15.309Z,12.47
2022-10-25T21:33:49.951Z,12.41
2022-10-25T21:36:20.399Z,12.38
2022-10-25T21:38:48.497Z,12.37
2022-10-25T21:41:19.876Z,12.42
2022-10-25T21:43:49.242Z,12.44
2022-10-25T21:46:18.550Z,12.45
2022-10-25T21:48:50.767Z,12.40
2022-10-25T21:51:20.169Z,12.33
2022-10-25T21:53:48.271Z,12.24
2022-10-25T21:56:17.778Z,12.29
2022-10-25T21:58:47.178Z,12.31
2022-10-25T22:01:20.578Z,12.26
2022-10-25T22:03:48.701Z,12.25
2022-10-25T22:06:19.458Z,12.23
2022-10-25T22:08:50.966Z,12.24
2022-10-25T22:11:20.243Z,12.19
2022-10-25T22:13:47.958Z,12.19
2022-10-25T22:16:17.756Z,12.17
2022-10-25T22:19:00.310Z,12.18
2022-10-25T22:21:35.690Z,12.16
2022-10-25T22:24:10.638Z,12.10
2022-10-25T22:26:40.172Z,12.04
2022-10-25T22:29:10.573Z,12.00
2022-10-25T22:31:38.701Z,11.99
2022-10-25T22:34:07.973Z,11.98
2022-10-25T22:36:38.710Z,11.97
2022-10-25T22:39:08.505Z,11.96
2022-10-25T22:41:36.495Z,11.91
2022-10-25T22:44:04.430Z,11.90
2022-10-25T22:46:34.328Z,11.87
2022-10-25T22:49:07.849Z,11.83
2022-10-25T22:51:36.129Z,11.80
2022-10-25T22:54:04.659Z,11.79
2022-10-25T22:56:32.351Z,11.77
2022-10-25T22:59:01.931Z,11.74
2022-10-25T23:01:31.643Z,11.68
2022-10-25T23:04:00.097Z,11.52
2022-10-25T23:06:33.324Z,11.40
2022-10-25T23:09:02.987Z,11.29
2022-10-25T23:11:33.111Z,11.18
2022-10-25T23:14:01.737Z,10.93
2022-10-25T23:16:29.930Z,10.91
2022-10-25T23:18:57.707Z,10.95
2022-10-25T23:21:27.557Z,11.03
2022-10-25T23:23:56.418Z,11.11
2022-10-25T23:26:31.971Z,11.11
2022-10-25T23:29:00.787Z,10.95
2022-10-25T23:31:29.870Z,10.90
2022-10-25T23:33:59.232Z,10.76
2022-10-25T23:36:29.301Z,10.85
2022-10-25T23:38:58.092Z,10.90
2022-10-25T23:41:25.832Z,10.82
2022-10-25T23:43:53.724Z,10.77
2022-10-25T23:46:21.455Z,10.79
2022-10-25T23:48:49.387Z,10.76
2022-10-25T23:51:18.515Z,10.71
2022-10-25T23:53:46.556Z,10.62
2022-10-25T23:56:14.799Z,10.59
2022-10-25T23:58:43.004Z,10.54
